INFORMAÇÕES DO AERODROMO
Icao Aerodromo CYGE Nome do Aerodromo Golden Airport Cidade Golden
Código GPS CYGE Elevação Média 2575 ft Tipo de Aerodromo Aeroporto Médio Porte

INFORMAÇÃO DE PISTA
Pista 14 Comprimento da Pista 4500 ft Largura da Pista 75 ft
Elevação da Pista 2575 ft Distância de Area de Escape da Pista 0 ft Orientação da Pista 161
Pista 32 Comprimento da Pista 4500 ft Largura da Pista 75 ft
Elevação da Pista 2575 ft Distância de Area de Escape da Pista 0 ft Orientação da Pista 341

FREQUÊNCIAS DO AERODROMO
Tipo RCO Nome PACIFIC RD Frequência 126.7 MHZ
Tipo UNIC Nome ATF/UNICOM Frequência 122.8 MHZ

INFORMAÇÕES DE NAVEGAÇÃO PRÓXIMO AO AERODROMO

Informações de Meteorologia(METAR atual)
METAR DE CYGE
ADDS - METARS form results

(2214 UTC 23 August 2019)
Data provider http://aviationweather.gov/metar/data/
 
METAR text: CYGE 232200Z 31007KT 15SM -RA BKN077 OVC110 15/10 A2992 RMK AC7AC1 SLP142 DENSITY ALT 3200FT
Conditions at: CYGE (GOLDEN ARPT , BC, CA) observed 2200 UTC 23 August 2019
Temperature: 15.0°C (59°F)
Dewpoint: 10.0°C (50°F) [RH = 72%]
Pressure (altimeter): 29.92 inches Hg (1013.3 mb)
[Sea-level pressure: 1014.2 mb]
Winds: from the NW (310 degrees) at 8 MPH (7 knots; 3.6 m/s)
Visibility: 15 miles (24 km)
Ceiling: 7700 feet AGL
Clouds: broken clouds at 7700 feet AGL
overcast cloud deck at 11000 feet AGL
Weather: -RA  (light rain)

MAPA DO AERODROMO


Desenvolvido por Virtual Airlines Manager




Modificado por Servidor Brasil Amigos